sensor_id;sensor_type;location;lat;lon;timestamp;pressure;altitude;pressure_sealevel;temperature;humidity
29371;BME280;16357;52.188;7.838;2022-12-29T00:01:37;99433.88;;;12.21;68.79
29371;BME280;16357;52.188;7.838;2022-12-29T00:04:05;99443.63;;;12.22;68.71
29371;BME280;16357;52.188;7.838;2022-12-29T00:06:39;99443.41;;;12.24;68.68
29371;BME280;16357;52.188;7.838;2022-12-29T00:09:06;99436.22;;;12.24;68.83
29371;BME280;16357;52.188;7.838;2022-12-29T00:11:33;99434.34;;;12.25;68.80
29371;BME280;16357;52.188;7.838;2022-12-29T00:13:59;99431.44;;;12.26;68.89
29371;BME280;16357;52.188;7.838;2022-12-29T00:16:51;99441.59;;;12.31;69.05
29371;BME280;16357;52.188;7.838;2022-12-29T00:19:18;99435.00;;;12.34;69.11
29371;BME280;16357;52.188;7.838;2022-12-29T00:22:03;99427.56;;;12.36;69.14
29371;BME280;16357;52.188;7.838;2022-12-29T00:24:48;99439.78;;;12.38;68.89
29371;BME280;16357;52.188;7.838;2022-12-29T00:27:28;99443.94;;;12.41;69.07
29371;BME280;16357;52.188;7.838;2022-12-29T00:30:20;99434.41;;;12.45;68.88
29371;BME280;16357;52.188;7.838;2022-12-29T00:33:17;99429.47;;;12.48;68.82
29371;BME280;16357;52.188;7.838;2022-12-29T00:38:29;99435.91;;;12.54;68.87
29371;BME280;16357;52.188;7.838;2022-12-29T00:41:15;99413.16;;;12.57;68.73
29371;BME280;16357;52.188;7.838;2022-12-29T00:44:01;99416.25;;;12.60;68.68
29371;BME280;16357;52.188;7.838;2022-12-29T00:46:34;99405.31;;;12.62;68.62
29371;BME280;16357;52.188;7.838;2022-12-29T00:49:02;99411.09;;;12.65;68.55
29371;BME280;16357;52.188;7.838;2022-12-29T00:51:47;99409.88;;;12.68;68.57
29371;BME280;16357;52.188;7.838;2022-12-29T00:54:15;99391.66;;;12.70;68.49
29371;BME280;16357;52.188;7.838;2022-12-29T00:56:48;99388.75;;;12.71;68.35
29371;BME280;16357;52.188;7.838;2022-12-29T00:59:16;99387.53;;;12.74;68.37
29371;BME280;16357;52.188;7.838;2022-12-29T01:01:43;99387.31;;;12.76;68.20
29371;BME280;16357;52.188;7.838;2022-12-29T01:04:10;99384.44;;;12.77;68.21
29371;BME280;16357;52.188;7.838;2022-12-29T01:06:38;99396.66;;;12.80;68.11
29371;BME280;16357;52.188;7.838;2022-12-29T01:09:06;99393.75;;;12.81;67.77
29371;BME280;16357;52.188;7.838;2022-12-29T01:11:52;99401.63;;;12.83;67.95
29371;BME280;16357;52.188;7.838;2022-12-29T01:14:19;99387.13;;;12.84;68.07
29371;BME280;16357;52.188;7.838;2022-12-29T01:16:46;99383.22;;;12.86;68.00
29371;BME280;16357;52.188;7.838;2022-12-29T01:19:14;99377.63;;;12.88;67.83
29371;BME280;16357;52.188;7.838;2022-12-29T01:21:43;99385.47;;;12.89;67.86
29371;BME280;16357;52.188;7.838;2022-12-29T01:24:10;99380.91;;;12.90;67.91
29371;BME280;16357;52.188;7.838;2022-12-29T01:26:36;99378.03;;;12.91;67.83
29371;BME280;16357;52.188;7.838;2022-12-29T01:29:03;99379.69;;;12.92;67.87
29371;BME280;16357;52.188;7.838;2022-12-29T01:31:29;99396.69;;;12.93;67.77
29371;BME280;16357;52.188;7.838;2022-12-29T01:33:56;99383.81;;;12.95;67.93
29371;BME280;16357;52.188;7.838;2022-12-29T01:36:23;99377.63;;;12.94;68.15
29371;BME280;16357;52.188;7.838;2022-12-29T01:38:50;99375.97;;;12.93;68.23
29371;BME280;16357;52.188;7.838;2022-12-29T01:41:17;99348.25;;;12.93;68.35
29371;BME280;16357;52.188;7.838;2022-12-29T01:43:55;99360.00;;;12.92;68.39
29371;BME280;16357;52.188;7.838;2022-12-29T01:46:41;99362.94;;;12.90;68.49
29371;BME280;16357;52.188;7.838;2022-12-29T01:49:22;99350.50;;;12.89;68.57
29371;BME280;16357;52.188;7.838;2022-12-29T01:51:57;99351.31;;;12.90;68.62
29371;BME280;16357;52.188;7.838;2022-12-29T01:54:29;99348.03;;;12.88;68.75
29371;BME280;16357;52.188;7.838;2022-12-29T01:56:59;99351.72;;;12.87;68.72
29371;BME280;16357;52.188;7.838;2022-12-29T01:59:33;99343.66;;;12.87;68.79
29371;BME280;16357;52.188;7.838;2022-12-29T02:02:01;99337.63;;;12.85;68.73
29371;BME280;16357;52.188;7.838;2022-12-29T02:04:30;99348.41;;;12.85;69.00
29371;BME280;16357;52.188;7.838;2022-12-29T02:07:05;99336.00;;;12.84;69.00
29371;BME280;16357;52.188;7.838;2022-12-29T02:09:33;99349.44;;;12.84;69.14
29371;BME280;16357;52.188;7.838;2022-12-29T02:12:00;99342.44;;;12.83;69.20
29371;BME280;16357;52.188;7.838;2022-12-29T02:14:27;99334.53;;;12.81;69.44
29371;BME280;16357;52.188;7.838;2022-12-29T02:25:18;99333.91;;;12.79;69.48
29371;BME280;16357;52.188;7.838;2022-12-29T02:30:42;99323.38;;;12.78;69.49
29371;BME280;16357;52.188;7.838;2022-12-29T02:33:41;99314.66;;;12.76;69.56
29371;BME280;16357;52.188;7.838;2022-12-29T02:39:10;99320.88;;;12.76;69.70
29371;BME280;16357;52.188;7.838;2022-12-29T02:42:03;99312.59;;;12.78;69.72
29371;BME280;16357;52.188;7.838;2022-12-29T02:44:44;99312.59;;;12.78;69.78
29371;BME280;16357;52.188;7.838;2022-12-29T02:50:16;99308.88;;;12.79;69.81
29371;BME280;16357;52.188;7.838;2022-12-29T02:53:08;99297.91;;;12.80;69.77
29371;BME280;16357;52.188;7.838;2022-12-29T02:55:36;99298.75;;;12.81;69.62
29371;BME280;16357;52.188;7.838;2022-12-29T03:00:40;99310.72;;;12.85;69.60
29371;BME280;16357;52.188;7.838;2022-12-29T03:09:04;99298.53;;;12.89;69.34
29371;BME280;16357;52.188;7.838;2022-12-29T03:11:58;99289.41;;;12.90;69.30
29371;BME280;16357;52.188;7.838;2022-12-29T03:17:32;99280.94;;;12.93;69.18
29371;BME280;16357;52.188;7.838;2022-12-29T03:20:05;99282.59;;;12.94;68.92
29371;BME280;16357;52.188;7.838;2022-12-29T03:22:38;99275.34;;;12.94;69.03
29371;BME280;16357;52.188;7.838;2022-12-29T03:25:14;99281.53;;;12.95;68.93
29371;BME280;16357;52.188;7.838;2022-12-29T03:27:45;99277.81;;;12.96;68.67
29371;BME280;16357;52.188;7.838;2022-12-29T03:30:13;99264.38;;;12.96;68.51
29371;BME280;16357;52.188;7.838;2022-12-29T03:32:53;99264.16;;;12.98;68.49
29371;BME280;16357;52.188;7.838;2022-12-29T03:35:24;99270.38;;;12.98;68.42
29371;BME280;16357;52.188;7.838;2022-12-29T03:40:39;99267.69;;;12.98;68.44
29371;BME280;16357;52.188;7.838;2022-12-29T03:43:08;99265.19;;;12.96;68.02
29371;BME280;16357;52.188;7.838;2022-12-29T03:45:35;99260.22;;;13.00;68.18
29371;BME280;16357;52.188;7.838;2022-12-29T03:48:01;99255.69;;;13.01;68.07
29371;BME280;16357;52.188;7.838;2022-12-29T03:50:28;99256.28;;;13.03;68.06
29371;BME280;16357;52.188;7.838;2022-12-29T03:52:54;99244.25;;;13.05;68.03
29371;BME280;16357;52.188;7.838;2022-12-29T03:55:20;99240.13;;;13.09;67.81
29371;BME280;16357;52.188;7.838;2022-12-29T03:57:47;99242.38;;;13.12;67.55
29371;BME280;16357;52.188;7.838;2022-12-29T04:00:13;99245.47;;;13.16;67.33
29371;BME280;16357;52.188;7.838;2022-12-29T04:02:40;99242.38;;;13.19;67.08
29371;BME280;16357;52.188;7.838;2022-12-29T04:05:07;99234.72;;;13.23;67.12
29371;BME280;16357;52.188;7.838;2022-12-29T04:07:33;99244.22;;;13.25;66.76
29371;BME280;16357;52.188;7.838;2022-12-29T04:10:00;99243.03;;;13.28;67.00
29371;BME280;16357;52.188;7.838;2022-12-29T04:12:26;99231.81;;;13.31;66.39
29371;BME280;16357;52.188;7.838;2022-12-29T04:14:53;99230.56;;;13.33;66.38
29371;BME280;16357;52.188;7.838;2022-12-29T04:17:20;99241.75;;;13.37;66.39
29371;BME280;16357;52.188;7.838;2022-12-29T04:19:46;99230.75;;;13.38;66.13
29371;BME280;16357;52.188;7.838;2022-12-29T04:22:12;99236.78;;;13.41;65.83
29371;BME280;16357;52.188;7.838;2022-12-29T04:24:39;99242.56;;;13.44;65.85
29371;BME280;16357;52.188;7.838;2022-12-29T04:27:05;99240.47;;;13.46;65.89
29371;BME280;16357;52.188;7.838;2022-12-29T04:29:32;99242.94;;;13.48;65.71
29371;BME280;16357;52.188;7.838;2022-12-29T04:31:59;99235.47;;;13.50;65.51
29371;BME280;16357;52.188;7.838;2022-12-29T04:34:25;99230.72;;;13.52;65.67
29371;BME280;16357;52.188;7.838;2022-12-29T04:36:52;99222.44;;;13.53;65.31
29371;BME280;16357;52.188;7.838;2022-12-29T04:39:18;99219.75;;;13.53;65.05
29371;BME280;16357;52.188;7.838;2022-12-29T04:41:45;99228.22;;;13.57;65.17
29371;BME280;16357;52.188;7.838;2022-12-29T04:44:12;99223.66;;;13.57;65.02
29371;BME280;16357;52.188;7.838;2022-12-29T04:46:39;99233.81;;;13.55;64.87
29371;BME280;16357;52.188;7.838;2022-12-29T04:49:05;99236.50;;;13.55;64.82
29371;BME280;16357;52.188;7.838;2022-12-29T04:51:35;99232.16;;;13.54;64.80
29371;BME280;16357;52.188;7.838;2022-12-29T04:54:01;99232.34;;;13.53;64.75
29371;BME280;16357;52.188;7.838;2022-12-29T04:56:28;99233.22;;;13.53;64.87
29371;BME280;16357;52.188;7.838;2022-12-29T04:58:54;99253.09;;;13.52;64.92
29371;BME280;16357;52.188;7.838;2022-12-29T05:01:20;99240.69;;;13.51;64.94
29371;BME280;16357;52.188;7.838;2022-12-29T05:03:50;99242.56;;;13.51;65.12
29371;BME280;16357;52.188;7.838;2022-12-29T05:06:16;99233.03;;;13.48;65.01
29371;BME280;16357;52.188;7.838;2022-12-29T05:08:43;99235.91;;;13.47;65.35
29371;BME280;16357;52.188;7.838;2022-12-29T05:11:10;99235.53;;;13.43;65.52
29371;BME280;16357;52.188;7.838;2022-12-29T05:13:36;99232.22;;;13.41;65.62
29371;BME280;16357;52.188;7.838;2022-12-29T05:16:03;99234.47;;;13.37;65.68
29371;BME280;16357;52.188;7.838;2022-12-29T05:18:29;99240.09;;;13.36;65.55
29371;BME280;16357;52.188;7.838;2022-12-29T05:20:56;99234.50;;;13.31;65.61
29371;BME280;16357;52.188;7.838;2022-12-29T05:23:22;99228.91;;;13.26;65.71
29371;BME280;16357;52.188;7.838;2022-12-29T05:25:48;99249.19;;;13.22;66.15
29371;BME280;16357;52.188;7.838;2022-12-29T05:28:15;99247.97;;;13.17;66.17
29371;BME280;16357;52.188;7.838;2022-12-29T05:30:43;99248.41;;;13.14;66.34
29371;BME280;16357;52.188;7.838;2022-12-29T05:33:10;99247.16;;;13.10;66.34
29371;BME280;16357;52.188;7.838;2022-12-29T05:35:37;99245.94;;;13.06;66.32
29371;BME280;16357;52.188;7.838;2022-12-29T05:38:04;99239.31;;;13.02;66.32
29371;BME280;16357;52.188;7.838;2022-12-29T05:40:30;99248.00;;;12.98;66.24
29371;BME280;16357;52.188;7.838;2022-12-29T05:42:58;99262.94;;;12.93;66.52
29371;BME280;16357;52.188;7.838;2022-12-29T05:45:24;99260.84;;;12.89;66.54
29371;BME280;16357;52.188;7.838;2022-12-29T05:47:50;99290.06;;;12.85;66.59
29371;BME280;16357;52.188;7.838;2022-12-29T05:50:17;99297.69;;;12.82;66.67
29371;BME280;16357;52.188;7.838;2022-12-29T05:52:43;99296.47;;;12.78;66.97
29371;BME280;16357;52.188;7.838;2022-12-29T05:55:10;99301.41;;;12.74;66.91
29371;BME280;16357;52.188;7.838;2022-12-29T05:57:37;99291.28;;;12.69;67.05
29371;BME280;16357;52.188;7.838;2022-12-29T06:00:05;99290.66;;;12.67;67.05
29371;BME280;16357;52.188;7.838;2022-12-29T06:02:31;99293.75;;;12.64;67.02
29371;BME280;16357;52.188;7.838;2022-12-29T06:04:58;99304.72;;;12.63;66.85
29371;BME280;16357;52.188;7.838;2022-12-29T06:07:25;99284.44;;;12.60;67.11
29371;BME280;16357;52.188;7.838;2022-12-29T06:09:51;99285.47;;;12.59;67.15
29371;BME280;16357;52.188;7.838;2022-12-29T06:12:17;99297.25;;;12.58;67.21
29371;BME280;16357;52.188;7.838;2022-12-29T06:14:44;99291.06;;;12.58;67.01
29371;BME280;16357;52.188;7.838;2022-12-29T06:17:10;99288.59;;;12.56;66.99
29371;BME280;16357;52.188;7.838;2022-12-29T06:19:37;99298.50;;;12.56;67.01
29371;BME280;16357;52.188;7.838;2022-12-29T06:22:03;99288.16;;;12.52;66.88
29371;BME280;16357;52.188;7.838;2022-12-29T06:24:29;99291.06;;;12.51;66.80
29371;BME280;16357;52.188;7.838;2022-12-29T06:26:56;99302.00;;;12.49;66.48
29371;BME280;16357;52.188;7.838;2022-12-29T06:29:22;99305.53;;;12.43;66.01
29371;BME280;16357;52.188;7.838;2022-12-29T06:31:49;99314.00;;;12.40;66.00
29371;BME280;16357;52.188;7.838;2022-12-29T06:34:17;99308.59;;;12.34;65.85
29371;BME280;16357;52.188;7.838;2022-12-29T06:36:43;99310.44;;;12.26;65.87
29371;BME280;16357;52.188;7.838;2022-12-29T06:39:10;99317.25;;;12.22;65.98
29371;BME280;16357;52.188;7.838;2022-12-29T06:41:37;99320.75;;;12.16;66.40
29371;BME280;16357;52.188;7.838;2022-12-29T06:44:04;99337.28;;;12.13;66.50
29371;BME280;16357;52.188;7.838;2022-12-29T06:46:30;99332.31;;;12.10;66.61
29371;BME280;16357;52.188;7.838;2022-12-29T06:48:57;99330.66;;;12.09;66.80
29371;BME280;16357;52.188;7.838;2022-12-29T06:51:23;99322.38;;;12.11;66.80
29371;BME280;16357;52.188;7.838;2022-12-29T06:53:50;99334.59;;;12.13;66.80
29371;BME280;16357;52.188;7.838;2022-12-29T06:56:16;99335.22;;;12.15;66.91
29371;BME280;16357;52.188;7.838;2022-12-29T06:58:43;99352.63;;;12.19;66.62
29371;BME280;16357;52.188;7.838;2022-12-29T07:01:09;99334.41;;;12.21;66.44
29371;BME280;16357;52.188;7.838;2022-12-29T07:03:36;99353.84;;;12.23;66.15
29371;BME280;16357;52.188;7.838;2022-12-29T07:06:02;99365.06;;;12.27;66.15
29371;BME280;16357;52.188;7.838;2022-12-29T07:08:29;99336.91;;;12.29;65.48
29371;BME280;16357;52.188;7.838;2022-12-29T07:10:55;99352.84;;;12.31;65.12
29371;BME280;16357;52.188;7.838;2022-12-29T07:13:22;99346.66;;;12.30;64.96
29371;BME280;16357;52.188;7.838;2022-12-29T07:15:48;99357.41;;;12.30;64.69
29371;BME280;16357;52.188;7.838;2022-12-29T07:18:15;99347.88;;;12.28;64.32
29371;BME280;16357;52.188;7.838;2022-12-29T07:20:42;99355.53;;;12.24;63.99
29371;BME280;16357;52.188;7.838;2022-12-29T07:23:08;99365.03;;;12.20;64.01
29371;BME280;16357;52.188;7.838;2022-12-29T07:25:35;99359.41;;;12.15;64.15
29371;BME280;16357;52.188;7.838;2022-12-29T07:28:03;99359.19;;;12.10;64.13
29371;BME280;16357;52.188;7.838;2022-12-29T07:30:29;99362.47;;;12.05;64.09
29371;BME280;16357;52.188;7.838;2022-12-29T07:32:56;99365.78;;;12.01;64.18
29371;BME280;16357;52.188;7.838;2022-12-29T07:35:23;99369.88;;;11.97;64.02
29371;BME280;16357;52.188;7.838;2022-12-29T07:37:49;99375.03;;;11.92;64.20
29371;BME280;16357;52.188;7.838;2022-12-29T07:40:16;99382.66;;;11.88;64.34
29371;BME280;16357;52.188;7.838;2022-12-29T07:42:44;99392.94;;;11.84;64.00
29371;BME280;16357;52.188;7.838;2022-12-29T07:45:10;99387.31;;;11.79;64.11
29371;BME280;16357;52.188;7.838;2022-12-29T07:47:37;99390.41;;;11.76;64.04
29371;BME280;16357;52.188;7.838;2022-12-29T07:50:04;99400.53;;;11.74;64.11
29371;BME280;16357;52.188;7.838;2022-12-29T07:52:31;99399.06;;;11.72;64.02
29371;BME280;16357;52.188;7.838;2022-12-29T07:54:57;99387.88;;;11.68;64.06
29371;BME280;16357;52.188;7.838;2022-12-29T07:57:23;99396.97;;;11.67;63.99
29371;BME280;16357;52.188;7.838;2022-12-29T07:59:57;99400.66;;;11.66;64.00
29371;BME280;16357;52.188;7.838;2022-12-29T08:02:23;99405.44;;;11.64;64.11
29371;BME280;16357;52.188;7.838;2022-12-29T08:04:50;99392.00;;;11.64;64.40
29371;BME280;16357;52.188;7.838;2022-12-29T08:07:16;99396.31;;;11.65;64.48
29371;BME280;16357;52.188;7.838;2022-12-29T08:09:43;99406.88;;;11.67;64.56
29371;BME280;16357;52.188;7.838;2022-12-29T08:12:12;99405.66;;;11.69;64.62
29371;BME280;16357;52.188;7.838;2022-12-29T08:14:38;99395.53;;;11.71;64.49
29371;BME280;16357;52.188;7.838;2022-12-29T08:17:05;99408.59;;;11.74;64.38
29371;BME280;16357;52.188;7.838;2022-12-29T08:19:31;99412.53;;;11.78;64.57
29371;BME280;16357;52.188;7.838;2022-12-29T08:21:58;99413.81;;;11.82;64.17
29371;BME280;16357;52.188;7.838;2022-12-29T08:24:24;99409.91;;;11.85;64.18
29371;BME280;16357;52.188;7.838;2022-12-29T08:26:50;99415.72;;;11.89;64.20
29371;BME280;16357;52.188;7.838;2022-12-29T08:29:17;99427.94;;;11.91;63.95
29371;BME280;16357;52.188;7.838;2022-12-29T08:31:43;99414.94;;;11.95;63.98
29371;BME280;16357;52.188;7.838;2022-12-29T08:34:10;99425.28;;;11.98;64.20
29371;BME280;16357;52.188;7.838;2022-12-29T08:36:37;99423.88;;;12.02;64.20
29371;BME280;16357;52.188;7.838;2022-12-29T08:39:03;99420.59;;;12.06;64.23
29371;BME280;16357;52.188;7.838;2022-12-29T08:41:30;99416.28;;;12.12;64.34
29371;BME280;16357;52.188;7.838;2022-12-29T08:43:56;99413.00;;;12.17;64.06
29371;BME280;16357;52.188;7.838;2022-12-29T08:46:23;99415.72;;;12.23;63.98
29371;BME280;16357;52.188;7.838;2022-12-29T08:48:49;99422.13;;;12.29;63.82
29371;BME280;16357;52.188;7.838;2022-12-29T08:51:16;99425.06;;;12.34;63.62
29371;BME280;16357;52.188;7.838;2022-12-29T08:53:49;99412.66;;;12.40;63.21
29371;BME280;16357;52.188;7.838;2022-12-29T08:56:16;99412.28;;;12.43;62.92
29371;BME280;16357;52.188;7.838;2022-12-29T08:58:43;99409.38;;;12.44;62.73
29371;BME280;16357;52.188;7.838;2022-12-29T09:01:10;99413.75;;;12.45;62.65
29371;BME280;16357;52.188;7.838;2022-12-29T09:03:37;99415.16;;;12.48;62.88
29371;BME280;16357;52.188;7.838;2022-12-29T09:06:23;99422.88;;;12.51;62.64
29371;BME280;16357;52.188;7.838;2022-12-29T09:08:50;99417.25;;;12.52;62.56
29371;BME280;16357;52.188;7.838;2022-12-29T09:11:19;99420.19;;;12.58;62.51
29371;BME280;16357;52.188;7.838;2022-12-29T09:13:46;99430.53;;;12.61;62.04
29371;BME280;16357;52.188;7.838;2022-12-29T09:16:14;99434.28;;;12.66;62.14
29371;BME280;16357;52.188;7.838;2022-12-29T09:18:41;99432.03;;;12.70;61.78
29371;BME280;16357;52.188;7.838;2022-12-29T09:21:09;99426.88;;;12.75;61.67
29371;BME280;16357;52.188;7.838;2022-12-29T09:23:37;99441.38;;;12.81;60.75
29371;BME280;16357;52.188;7.838;2022-12-29T09:26:04;99427.31;;;12.85;60.51
29371;BME280;16357;52.188;7.838;2022-12-29T09:28:31;99427.53;;;12.90;60.28
29371;BME280;16357;52.188;7.838;2022-12-29T09:30:58;99430.63;;;12.94;59.87
29371;BME280;16357;52.188;7.838;2022-12-29T09:33:25;99420.50;;;12.96;59.63
29371;BME280;16357;52.188;7.838;2022-12-29T09:35:57;99417.41;;;12.99;59.27
29371;BME280;16357;52.188;7.838;2022-12-29T09:38:25;99419.03;;;13.00;58.70
29371;BME280;16357;52.188;7.838;2022-12-29T09:40:55;99424.00;;;13.03;58.52
29371;BME280;16357;52.188;7.838;2022-12-29T09:46:20;99435.63;;;13.10;59.03
29371;BME280;16357;52.188;7.838;2022-12-29T09:51:48;99431.53;;;13.28;58.67
29371;BME280;16357;52.188;7.838;2022-12-29T09:56:55;99450.63;;;13.46;57.85
29371;BME280;16357;52.188;7.838;2022-12-29T09:59:38;99431.53;;;13.54;57.85
29371;BME280;16357;52.188;7.838;2022-12-29T10:04:43;99431.53;;;13.68;56.92
29371;BME280;16357;52.188;7.838;2022-12-29T10:10:05;99430.25;;;13.77;56.76
29371;BME280;16357;52.188;7.838;2022-12-29T10:12:58;99422.81;;;13.79;55.97
29371;BME280;16357;52.188;7.838;2022-12-29T10:15:56;99421.78;;;13.80;55.76
29371;BME280;16357;52.188;7.838;2022-12-29T10:18:41;99427.78;;;13.82;56.02
29371;BME280;16357;52.188;7.838;2022-12-29T10:21:31;99418.66;;;13.83;55.24
29371;BME280;16357;52.188;7.838;2022-12-29T10:24:04;99417.63;;;13.84;54.99
29371;BME280;16357;52.188;7.838;2022-12-29T10:26:40;99418.25;;;13.86;55.36
29371;BME280;16357;52.188;7.838;2022-12-29T10:29:15;99428.59;;;13.89;55.70
29371;BME280;16357;52.188;7.838;2022-12-29T10:31:47;99421.97;;;13.92;55.53
29371;BME280;16357;52.188;7.838;2022-12-29T10:34:29;99425.69;;;13.97;55.82
29371;BME280;16357;52.188;7.838;2022-12-29T10:37:47;99431.25;;;14.02;55.85
29371;BME280;16357;52.188;7.838;2022-12-29T10:40:01;99431.03;;;14.11;55.41
29371;BME280;16357;52.188;7.838;2022-12-29T10:42:42;99424.81;;;14.17;55.10
29371;BME280;16357;52.188;7.838;2022-12-29T10:45:15;99432.25;;;14.21;55.14
29371;BME280;16357;52.188;7.838;2022-12-29T10:48:03;99430.16;;;14.23;54.68
29371;BME280;16357;52.188;7.838;2022-12-29T10:50:30;99423.53;;;14.26;54.61
29371;BME280;16357;52.188;7.838;2022-12-29T10:53:02;99422.50;;;14.27;55.08
29371;BME280;16357;52.188;7.838;2022-12-29T10:55:33;99428.47;;;14.29;55.06
29371;BME280;16357;52.188;7.838;2022-12-29T10:58:04;99429.53;;;14.28;54.82
29371;BME280;16357;52.188;7.838;2022-12-29T11:00:32;99417.09;;;14.27;54.72
29371;BME280;16357;52.188;7.838;2022-12-29T11:06:04;99423.75;;;14.24;54.92
29371;BME280;16357;52.188;7.838;2022-12-29T11:08:40;99421.25;;;14.23;55.13
29371;BME280;16357;52.188;7.838;2022-12-29T11:11:11;99430.59;;;14.20;54.40
29371;BME280;16357;52.188;7.838;2022-12-29T11:13:50;99421.69;;;14.20;54.44
29371;BME280;16357;52.188;7.838;2022-12-29T11:16:33;99420.25;;;14.17;55.04
29371;BME280;16357;52.188;7.838;2022-12-29T11:19:01;99407.19;;;14.14;54.59
29371;BME280;16357;52.188;7.838;2022-12-29T11:21:37;99423.97;;;14.16;54.93
29371;BME280;16357;52.188;7.838;2022-12-29T11:24:26;99431.84;;;14.18;54.85
29371;BME280;16357;52.188;7.838;2022-12-29T11:26:55;99430.22;;;14.17;54.91
29371;BME280;16357;52.188;7.838;2022-12-29T11:29:39;99437.88;;;14.20;54.99
29371;BME280;16357;52.188;7.838;2022-12-29T11:34:53;99428.53;;;14.22;53.96
29371;BME280;16357;52.188;7.838;2022-12-29T11:37:29;99448.84;;;14.25;54.91
29371;BME280;16357;52.188;7.838;2022-12-29T11:39:57;99444.06;;;14.27;54.52
29371;BME280;16357;52.188;7.838;2022-12-29T11:42:47;99462.72;;;14.28;54.31
29371;BME280;16357;52.188;7.838;2022-12-29T11:47:54;99468.94;;;14.29;53.73
29371;BME280;16357;52.188;7.838;2022-12-29T11:50:31;99463.78;;;14.27;54.24
29371;BME280;16357;52.188;7.838;2022-12-29T11:53:17;99469.59;;;14.24;53.83
29371;BME280;16357;52.188;7.838;2022-12-29T11:55:58;99475.41;;;14.21;54.15
29371;BME280;16357;52.188;7.838;2022-12-29T11:58:30;99472.94;;;14.20;54.93
29371;BME280;16357;52.188;7.838;2022-12-29T12:01:16;99500.09;;;14.18;54.71
29371;BME280;16357;52.188;7.838;2022-12-29T12:04:11;99484.34;;;14.15;54.95
29371;BME280;16357;52.188;7.838;2022-12-29T12:06:47;99477.06;;;14.16;55.18
29371;BME280;16357;52.188;7.838;2022-12-29T12:09:32;99489.94;;;14.14;55.32
29371;BME280;16357;52.188;7.838;2022-12-29T12:12:02;99484.53;;;14.14;55.46
29371;BME280;16357;52.188;7.838;2022-12-29T12:14:37;99503.44;;;14.14;55.45
29371;BME280;16357;52.188;7.838;2022-12-29T12:17:21;99500.31;;;14.10;55.10
29371;BME280;16357;52.188;7.838;2022-12-29T12:23:06;99499.94;;;14.07;55.46
29371;BME280;16357;52.188;7.838;2022-12-29T12:25:43;99501.38;;;14.02;55.41
29371;BME280;16357;52.188;7.838;2022-12-29T12:28:21;99511.53;;;14.00;55.08
29371;BME280;16357;52.188;7.838;2022-12-29T12:30:59;99528.13;;;13.97;55.33
29371;BME280;16357;52.188;7.838;2022-12-29T12:33:31;99525.84;;;13.94;55.23
29371;BME280;16357;52.188;7.838;2022-12-29T12:38:55;99548.28;;;13.88;55.20
29371;BME280;16357;52.188;7.838;2022-12-29T12:41:44;99549.50;;;13.86;55.07
29371;BME280;16357;52.188;7.838;2022-12-29T12:44:25;99537.28;;;13.83;55.05
29371;BME280;16357;52.188;7.838;2022-12-29T12:50:11;99548.03;;;13.76;55.70
29371;BME280;16357;52.188;7.838;2022-12-29T12:53:02;99542.47;;;13.78;55.03
29371;BME280;16357;52.188;7.838;2022-12-29T12:58:36;99566.09;;;13.76;55.55
29371;BME280;16357;52.188;7.838;2022-12-29T13:06:32;99574.19;;;13.76;55.20
29371;BME280;16357;52.188;7.838;2022-12-29T13:11:54;99565.03;;;13.77;55.22
29371;BME280;16357;52.188;7.838;2022-12-29T13:17:05;99591.59;;;13.80;55.41
29371;BME280;16357;52.188;7.838;2022-12-29T13:19:46;99581.66;;;13.80;55.66
29371;BME280;16357;52.188;7.838;2022-12-29T13:27:22;99578.94;;;13.87;55.43
29371;BME280;16357;52.188;7.838;2022-12-29T13:30:26;99591.00;;;13.91;55.25
29371;BME280;16357;52.188;7.838;2022-12-29T13:38:38;99601.16;;;13.96;54.68
29371;BME280;16357;52.188;7.838;2022-12-29T13:41:12;99624.56;;;13.95;54.63
29371;BME280;16357;52.188;7.838;2022-12-29T13:43:42;99628.50;;;13.93;54.65
29371;BME280;16357;52.188;7.838;2022-12-29T13:46:18;99618.13;;;13.90;54.32
29371;BME280;16357;52.188;7.838;2022-12-29T13:48:47;99622.28;;;13.92;55.04
29371;BME280;16357;52.188;7.838;2022-12-29T13:51:16;99626.47;;;13.88;54.44
29371;BME280;16357;52.188;7.838;2022-12-29T13:54:23;99622.31;;;13.86;54.42
29371;BME280;16357;52.188;7.838;2022-12-29T14:00:21;99641.38;;;13.84;54.38
29371;BME280;16357;52.188;7.838;2022-12-29T14:05:36;99638.03;;;13.82;54.62
29371;BME280;16357;52.188;7.838;2022-12-29T14:08:15;99631.00;;;13.81;54.47
29371;BME280;16357;52.188;7.838;2022-12-29T14:10:51;99640.72;;;13.82;54.38
29371;BME280;16357;52.188;7.838;2022-12-29T14:13:23;99638.91;;;13.82;54.20
29371;BME280;16357;52.188;7.838;2022-12-29T14:15:54;99645.31;;;13.81;54.00
29371;BME280;16357;52.188;7.838;2022-12-29T14:18:22;99649.88;;;13.81;53.58
29371;BME280;16357;52.188;7.838;2022-12-29T14:20:59;99647.16;;;13.81;53.48
29371;BME280;16357;52.188;7.838;2022-12-29T14:28:47;99658.56;;;13.70;53.59
29371;BME280;16357;52.188;7.838;2022-12-29T14:39:36;99675.47;;;13.50;53.83
29371;BME280;16357;52.188;7.838;2022-12-29T14:44:33;99677.34;;;13.43;54.41
29371;BME280;16357;52.188;7.838;2022-12-29T14:47:07;99678.34;;;13.42;54.72
29371;BME280;16357;52.188;7.838;2022-12-29T14:49:42;99678.34;;;13.42;54.84
29371;BME280;16357;52.188;7.838;2022-12-29T14:54:46;99688.13;;;13.43;54.73
29371;BME280;16357;52.188;7.838;2022-12-29T14:57:25;99678.16;;;13.44;54.67
29371;BME280;16357;52.188;7.838;2022-12-29T14:59:58;99689.13;;;13.42;54.56
29371;BME280;16357;52.188;7.838;2022-12-29T15:02:33;99683.97;;;13.41;54.34
29371;BME280;16357;52.188;7.838;2022-12-29T15:05:02;99690.75;;;13.36;54.56
29371;BME280;16357;52.188;7.838;2022-12-29T15:07:29;99695.09;;;13.31;54.55
29371;BME280;16357;52.188;7.838;2022-12-29T15:10:03;99693.63;;;13.28;54.89
29371;BME280;16357;52.188;7.838;2022-12-29T15:12:41;99684.91;;;13.26;55.11
29371;BME280;16357;52.188;7.838;2022-12-29T15:15:37;99691.50;;;13.24;55.14
29371;BME280;16357;52.188;7.838;2022-12-29T15:18:25;99697.94;;;13.23;55.27